Terminal Aerodrome Forecast
Issued by NWS

Home | Current Version | Previous Version | Text Only | Print | Product List | Glossary On
Versions: 1 2 3 4 5 6 7 8 9 10 11 12 13
000
FTUS43 KILX 301700
TAFCMI
TAF
KCMI 301733Z 3018/3118 29008KT P6SM SCT040
     FM310000 VRB03KT P6SM SKC
     FM311500 24005KT P6SM FEW050=

USA.gov is the U.S. government's official web portal to all federal, state and local government web resources and services.